Time;durP1;ratioP1;P1;durP2;ratioP2;P2;SDS_P1;SDS_P2;PMS_P1;PMS_P2;Temp;Humidity;BMP_temperature;BMP_pressure;BME280_temperature;BME280_humidity;BME280_pressure;Samples;Min_cycle;Max_cycle;Signal;HPM_P1;HPM_P2
2021/01/12 00:00:53;;;;;;;7.57;5.33;;;19.00;25.40;;;;;;8346745;28;20125;-54
2021/01/12 00:04:53;;;;;;;7.03;5.00;;;19.00;25.50;;;;;;8345765;28;20083;-54
2021/01/12 00:08:54;;;;;;;8.80;5.70;;;18.90;25.50;;;;;;8332344;28;20490;-55
2021/01/12 00:12:54;;;;;;;8.53;5.53;;;18.90;25.50;;;;;;8337287;28;20041;-52
2021/01/12 00:16:55;;;;;;;9.33;5.80;;;18.90;25.50;;;;;;8337691;28;20025;-55
2021/01/12 00:20:55;;;;;;;7.57;5.30;;;18.90;25.50;;;;;;8352378;28;20041;-55
2021/01/12 00:24:56;;;;;;;6.40;4.90;;;18.90;25.50;;;;;;8349591;28;20038;-55
2021/01/12 00:28:56;;;;;;;8.33;5.10;;;18.90;25.50;;;;;;8345801;28;20041;-55
2021/01/12 00:32:57;;;;;;;7.17;5.20;;;18.80;25.50;;;;;;8352021;28;20441;-55
2021/01/12 00:36:57;;;;;;;9.17;5.43;;;18.80;25.90;;;;;;8324627;28;20034;-55
2021/01/12 00:40:58;;;;;;;7.93;5.53;;;18.80;25.50;;;;;;8328535;28;20033;-55
2021/01/12 00:44:58;;;;;;;7.17;5.10;;;18.80;25.50;;;;;;8322657;28;20037;-54
2021/01/12 00:48:59;;;;;;;6.10;4.90;;;18.80;25.50;;;;;;8324876;28;20025;-55
2021/01/12 00:53:00;;;;;;;7.37;5.30;;;18.80;25.60;;;;;;8324593;28;20477;-55
2021/01/12 00:57:01;;;;;;;6.20;4.83;;;18.80;25.50;;;;;;8327416;28;20272;-56
2021/01/12 01:01:01;;;;;;;6.13;4.50;;;18.70;25.50;;;;;;8348331;28;20038;-55
2021/01/12 01:05:02;;;;;;;7.23;5.73;;;18.70;25.50;;;;;;8324125;28;20483;-55
2021/01/12 01:09:03;;;;;;;7.13;5.20;;;18.70;25.50;;;;;;8322954;28;20418;-55
2021/01/12 01:13:04;;;;;;;6.83;5.33;;;18.70;25.50;;;;;;8324175;28;20165;-55
2021/01/12 01:17:04;;;;;;;9.20;5.20;;;18.70;25.50;;;;;;8328564;28;20030;-55
2021/01/12 01:21:05;;;;;;;7.67;5.57;;;18.70;25.60;;;;;;8322663;28;20533;-55
2021/01/12 01:25:06;;;;;;;6.23;4.93;;;18.70;25.50;;;;;;8323894;28;20034;-55
2021/01/12 01:29:07;;;;;;;6.57;5.22;;;18.70;25.60;;;;;;8323742;28;20037;-55
2021/01/12 01:33:07;;;;;;;7.27;5.20;;;18.70;25.60;;;;;;8356750;28;20030;-55
2021/01/12 01:37:08;;;;;;;7.17;5.10;;;18.70;25.60;;;;;;8343710;28;20037;-55
2021/01/12 01:41:10;;;;;;;8.80;5.70;;;18.70;25.60;;;;;;8329938;28;20390;-55
2021/01/12 01:45:10;;;;;;;;;;;18.70;25.60;;;;;;8359395;28;20551;-55
2021/01/12 01:49:11;;;;;;;7.40;5.53;;;18.60;25.60;;;;;;8348354;28;19936;-55
2021/01/12 01:53:12;;;;;;;8.27;5.53;;;18.60;25.60;;;;;;8356475;28;20029;-55
2021/01/12 01:57:13;;;;;;;6.35;4.40;;;18.60;25.60;;;;;;8329993;28;20042;-55
2021/01/12 02:01:14;;;;;;;7.03;5.00;;;18.60;25.60;;;;;;8329408;28;20064;-55
2021/01/12 02:05:14;;;;;;;7.90;5.33;;;18.60;25.60;;;;;;8329330;28;20029;-54
2021/01/12 02:09:24;;;;;;;6.93;5.20;;;18.60;25.60;;;;;;8331940;28;20432;-56
2021/01/12 02:13:28;;;;;;;7.32;5.15;;;18.50;25.60;;;;;;8328887;28;20050;-55
2021/01/12 02:17:30;;;;;;;7.95;5.72;;;18.60;25.70;;;;;;8351906;28;20037;-54
2021/01/12 02:21:39;;;;;;;7.93;5.35;;;18.50;25.60;;;;;;8328644;28;20060;-55
2021/01/12 02:25:41;;;;;;;6.97;5.05;;;18.50;25.60;;;;;;8328593;28;20052;-55
2021/01/12 02:29:42;;;;;;;6.68;4.97;;;18.50;25.60;;;;;;8358331;28;20440;-56
2021/01/12 02:33:46;;;;;;;6.40;4.83;;;18.50;25.60;;;;;;8350735;28;20040;-56
2021/01/12 02:37:47;;;;;;;6.07;4.95;;;18.60;25.70;;;;;;8328376;28;20118;-54
2021/01/12 02:41:48;;;;;;;6.95;4.80;;;18.50;25.70;;;;;;8326498;28;20053;-54
2021/01/12 02:45:48;;;;;;;8.77;5.57;;;18.50;25.70;;;;;;8332279;28;20087;-55
2021/01/12 02:49:49;;;;;;;6.87;4.83;;;18.50;25.70;;;;;;8327899;28;20045;-55
2021/01/12 02:53:49;;;;;;;7.50;5.37;;;18.50;25.70;;;;;;8326245;28;20083;-55
2021/01/12 02:57:50;;;;;;;8.10;6.23;;;18.50;25.70;;;;;;8327338;28;20571;-54
2021/01/12 03:01:50;;;;;;;6.10;4.33;;;18.50;25.70;;;;;;8326884;28;20053;-53
2021/01/12 03:05:52;;;;;;;7.87;4.93;;;18.40;25.70;;;;;;8329710;28;20048;-54
2021/01/12 03:09:52;;;;;;;6.53;5.32;;;18.50;25.70;;;;;;8326943;28;20034;-55
2021/01/12 03:13:53;;;;;;;7.70;5.03;;;18.40;25.70;;;;;;8327439;28;20048;-55
2021/01/12 03:17:53;;;;;;;5.53;4.60;;;18.40;25.70;;;;;;8324843;28;20052;-56
2021/01/12 03:21:54;;;;;;;6.77;5.00;;;18.40;25.70;;;;;;8343515;28;20041;-55
2021/01/12 03:25:55;;;;;;;8.17;5.20;;;18.40;25.80;;;;;;8339324;28;20121;-54
2021/01/12 03:29:55;;;;;;;7.80;4.93;;;18.40;25.80;;;;;;8328734;28;20049;-54
2021/01/12 03:33:56;;;;;;;5.60;4.50;;;18.40;25.80;;;;;;8359316;28;20032;-54
2021/01/12 03:37:56;;;;;;;6.60;5.07;;;18.40;25.80;;;;;;8363756;28;20033;-55
2021/01/12 03:41:57;;;;;;;8.00;5.50;;;18.30;25.70;;;;;;8328492;28;20049;-54
2021/01/12 03:45:57;;;;;;;5.60;4.63;;;18.30;25.80;;;;;;8326098;28;20180;-54
2021/01/12 03:49:58;;;;;;;6.90;5.00;;;18.40;25.80;;;;;;8346830;28;20076;-55
2021/01/12 03:53:58;;;;;;;6.10;4.70;;;18.40;25.80;;;;;;8328394;28;20079;-54
2021/01/12 03:57:59;;;;;;;7.90;5.63;;;18.40;25.80;;;;;;8330288;28;20022;-55
2021/01/12 04:01:59;;;;;;;7.87;5.80;;;18.30;25.80;;;;;;8346053;28;20044;-54
2021/01/12 04:06:09;;;;;;;7.03;5.17;;;18.30;25.80;;;;;;8327466;28;20045;-54
2021/01/12 04:10:11;;;;;;;7.53;5.10;;;18.30;25.90;;;;;;8325744;28;20033;-54
2021/01/12 04:14:11;;;;;;;6.97;5.10;;;18.30;25.90;;;;;;8329744;28;20042;-54
2021/01/12 04:18:12;;;;;;;6.80;5.13;;;18.30;25.90;;;;;;8329491;28;20045;-54
2021/01/12 04:22:12;;;;;;;7.70;4.90;;;18.40;25.90;;;;;;8357836;28;20073;-55
2021/01/12 04:26:13;;;;;;;6.80;5.40;;;18.40;25.90;;;;;;8335199;28;20044;-55
2021/01/12 04:30:13;;;;;;;8.53;5.50;;;18.40;25.80;;;;;;8329956;28;20102;-54
2021/01/12 04:34:14;;;;;;;7.17;4.87;;;18.50;25.80;;;;;;8362208;28;20559;-54
2021/01/12 04:38:14;;;;;;;6.57;5.10;;;18.50;25.80;;;;;;8334941;28;20359;-54
2021/01/12 04:42:15;;;;;;;8.07;5.90;;;18.60;25.70;;;;;;8322916;28;20048;-55
2021/01/12 04:46:15;;;;;;;7.43;5.20;;;18.60;25.70;;;;;;8324426;28;20546;-54
2021/01/12 04:50:16;;;;;;;7.33;5.57;;;18.60;25.70;;;;;;8328625;28;20080;-55
2021/01/12 04:54:17;;;;;;;6.87;5.13;;;18.70;25.70;;;;;;8322463;28;20438;-55
2021/01/12 04:58:17;;;;;;;7.10;5.37;;;18.70;26.10;;;;;;8324240;28;20072;-55
2021/01/12 05:02:18;;;;;;;7.10;5.70;;;18.70;25.60;;;;;;8347811;28;20182;-55
2021/01/12 05:06:21;;;;;;;6.30;5.03;;;18.80;25.70;;;;;;8359839;28;20045;-55
2021/01/12 05:10:21;;;;;;;6.85;4.90;;;18.80;25.60;;;;;;8356896;28;20037;-55
2021/01/12 05:14:24;;;;;;;7.97;5.63;;;18.80;25.60;;;;;;8337758;28;20030;-55
2021/01/12 05:18:25;;;;;;;7.45;5.05;;;18.80;25.60;;;;;;8361608;28;20082;-55
2021/01/12 05:22:28;;;;;;;8.17;5.93;;;18.80;25.60;;;;;;8347463;28;20046;-55
2021/01/12 05:26:37;;;;;;;6.93;4.88;;;18.80;25.60;;;;;;8333052;28;20038;-55
2021/01/12 05:30:38;;;;;;;9.43;5.43;;;18.90;25.60;;;;;;8339942;28;20033;-55
2021/01/12 05:34:39;;;;;;;7.28;5.38;;;18.90;25.60;;;;;;8363384;28;20056;-55
2021/01/12 05:38:39;;;;;;;7.30;5.03;;;18.90;25.60;;;;;;8335211;28;20041;-55
2021/01/12 05:42:40;;;;;;;6.57;5.27;;;18.90;25.60;;;;;;8334516;28;20467;-55
2021/01/12 05:46:43;;;;;;;6.20;4.90;;;19.00;25.60;;;;;;8330106;28;20057;-53
2021/01/12 05:50:48;;;;;;;5.82;5.00;;;19.00;25.60;;;;;;8327972;28;20033;-56
2021/01/12 05:55:04;;;;;;;6.32;5.00;;;19.00;25.60;;;;;;8329382;28;20037;-56
2021/01/12 05:59:14;;;;;;;6.97;5.68;;;19.00;25.50;;;;;;8329441;28;20493;-56
2021/01/12 06:03:16;;;;;;;7.68;5.55;;;19.00;25.50;;;;;;8332045;28;20434;-55
2021/01/12 06:07:17;;;;;;;6.72;4.70;;;19.00;25.50;;;;;;8329145;28;20059;-57
2021/01/12 06:11:19;;;;;;;6.93;4.93;;;19.00;25.50;;;;;;8328898;28;20025;-55
2021/01/12 06:15:26;;;;;;;6.35;5.07;;;19.10;25.50;;;;;;8327354;28;20033;-56
2021/01/12 06:19:28;;;;;;;6.75;5.53;;;19.10;25.50;;;;;;8328703;28;20553;-56
2021/01/12 06:23:39;;;;;;;6.88;5.05;;;19.10;25.50;;;;;;8331491;28;20132;-52
2021/01/12 06:27:40;;;;;;;6.70;5.15;;;19.10;25.50;;;;;;8328824;28;20069;-56
2021/01/12 06:31:48;;;;;;;7.33;5.47;;;19.10;25.50;;;;;;8328639;28;20029;-57
2021/01/12 06:35:51;;;;;;;8.32;5.20;;;19.10;25.50;;;;;;8354477;28;20025;-56
2021/01/12 06:40:01;;;;;;;6.05;4.70;;;19.10;25.50;;;;;;8365804;28;20029;-56
2021/01/12 06:44:19;;;;;;;9.13;5.55;;;19.10;25.50;;;;;;8360786;28;20053;-56
2021/01/12 06:48:19;;;;;;;6.72;5.07;;;19.10;25.50;;;;;;8327058;28;20457;-55
2021/01/12 06:52:20;;;;;;;6.83;5.37;;;19.10;25.50;;;;;;8327998;28;20057;-55
2021/01/12 06:56:33;;;;;;;8.40;5.23;;;19.10;25.50;;;;;;8327945;28;20124;-55
2021/01/12 07:00:35;;;;;;;7.25;5.53;;;19.10;25.50;;;;;;8330686;28;20030;-55
2021/01/12 07:04:36;;;;;;;6.80;5.20;;;19.20;25.60;;;;;;8327550;28;20506;-55
2021/01/12 07:08:44;;;;;;;6.77;5.13;;;19.20;25.50;;;;;;8350386;28;20037;-55
2021/01/12 07:12:46;;;;;;;5.88;5.07;;;19.20;25.60;;;;;;8327252;28;20372;-56
2021/01/12 07:16:46;;;;;;;8.88;5.38;;;19.20;25.60;;;;;;8327079;28;20454;-57
2021/01/12 07:20:47;;;;;;;7.30;5.37;;;19.20;25.60;;;;;;8357138;28;20091;-57
2021/01/12 07:24:48;;;;;;;9.20;6.23;;;19.20;25.60;;;;;;8359989;28;20080;-57
2021/01/12 07:28:48;;;;;;;8.77;5.10;;;19.20;25.60;;;;;;8359589;28;20036;-57
2021/01/12 07:32:56;;;;;;;7.47;5.80;;;19.20;25.50;;;;;;8329798;28;20068;-55
2021/01/12 07:36:56;;;;;;;6.60;5.38;;;19.20;25.50;;;;;;8329691;28;20038;-55
2021/01/12 07:40:59;;;;;;;8.70;5.33;;;19.20;25.60;;;;;;8325712;28;20445;-56
2021/01/12 07:45:00;;;;;;;7.55;5.15;;;19.20;25.50;;;;;;8353272;28;20073;-56
2021/01/12 07:49:01;;;;;;;7.90;4.90;;;19.20;25.50;;;;;;8359242;28;20056;-57
2021/01/12 07:53:05;;;;;;;8.40;5.30;;;19.20;25.60;;;;;;8358705;28;20094;-57
2021/01/12 07:57:05;;;;;;;8.13;5.68;;;19.30;25.60;;;;;;8356160;28;20034;-56
2021/01/12 08:01:07;;;;;;;7.93;5.67;;;19.30;25.60;;;;;;8325622;28;20390;-56
2021/01/12 08:05:08;;;;;;;;;;;19.30;25.60;;;;;;8348252;28;20375;-56
2021/01/12 08:09:10;;;;;;;5.95;4.85;;;19.30;25.60;;;;;;8356595;28;19919;-57
2021/01/12 08:13:15;;;;;;;7.57;5.25;;;19.30;25.60;;;;;;8348577;28;20039;-56
2021/01/12 08:17:24;;;;;;;7.55;5.47;;;19.30;25.60;;;;;;8325103;28;20087;-56
2021/01/12 08:21:24;;;;;;;7.03;5.28;;;19.30;25.60;;;;;;8355901;28;20132;-57
2021/01/12 08:25:25;;;;;;;6.73;4.97;;;19.30;25.60;;;;;;8357815;28;20033;-56
2021/01/12 08:29:27;;;;;;;7.07;5.43;;;19.30;25.60;;;;;;8357738;28;20061;-56
2021/01/12 08:33:35;;;;;;;6.90;5.20;;;19.30;25.60;;;;;;8360926;28;20049;-57
2021/01/12 08:37:41;;;;;;;6.50;5.45;;;19.30;25.70;;;;;;8357451;28;20072;-56
2021/01/12 08:41:44;;;;;;;8.43;4.68;;;19.30;25.60;;;;;;8353676;28;20053;-56
2021/01/12 08:45:48;;;;;;;5.95;5.05;;;19.30;25.70;;;;;;8335184;28;20022;-56
2021/01/12 08:50:03;;;;;;;6.07;5.20;;;19.30;25.70;;;;;;8361651;28;20119;-57
2021/01/12 08:54:04;;;;;;;7.07;5.35;;;19.30;25.70;;;;;;8327416;28;20033;-56
2021/01/12 08:58:08;;;;;;;6.43;4.77;;;19.40;25.70;;;;;;8324353;28;20128;-56
2021/01/12 09:02:17;;;;;;;6.07;5.13;;;19.30;25.70;;;;;;8346251;28;20322;-56
2021/01/12 09:06:19;;;;;;;7.55;5.28;;;19.40;25.70;;;;;;8348235;28;20464;-57
2021/01/12 09:10:24;;;;;;;;;;;19.40;25.70;;;;;;8329134;28;20029;-57
2021/01/12 09:14:29;;;;;;;5.63;4.43;;;19.40;25.70;;;;;;8348245;28;20314;-55
2021/01/12 09:18:35;;;;;;;5.45;4.70;;;19.40;25.80;;;;;;8347081;28;20037;-55
2021/01/12 09:22:35;;;;;;;6.25;4.72;;;19.30;25.70;;;;;;8323907;28;20072;-55
2021/01/12 09:26:36;;;;;;;6.77;4.97;;;19.40;25.70;;;;;;8347034;28;20033;-55
2021/01/12 09:30:37;;;;;;;5.63;4.43;;;19.40;25.70;;;;;;8327985;28;20041;-55
2021/01/12 09:34:41;;;;;;;6.65;4.72;;;19.40;25.80;;;;;;8323576;28;20107;-55
2021/01/12 09:38:50;;;;;;;5.65;4.82;;;19.40;25.70;;;;;;8322274;28;20033;-55
2021/01/12 09:42:51;;;;;;;5.35;4.28;;;19.50;25.80;;;;;;8323486;28;20045;-55
2021/01/12 09:46:51;;;;;;;6.40;5.10;;;19.40;25.80;;;;;;8327999;28;20049;-55
2021/01/12 09:50:53;;;;;;;6.73;4.73;;;19.50;26.20;;;;;;8321636;28;20053;-56
2021/01/12 09:54:53;;;;;;;6.10;4.47;;;19.50;25.80;;;;;;8323497;28;20056;-54
2021/01/12 09:58:54;;;;;;;6.17;4.43;;;19.50;25.80;;;;;;8325596;28;20560;-55
2021/01/12 10:02:54;;;;;;;7.23;4.23;;;19.50;25.80;;;;;;8330307;28;20042;-55
2021/01/12 10:06:56;;;;;;;4.80;4.30;;;19.50;25.80;;;;;;8332226;28;20034;-55
2021/01/12 10:10:57;;;;;;;6.35;4.43;;;19.50;25.90;;;;;;8328917;28;20041;-54
2021/01/12 10:14:57;;;;;;;6.37;4.87;;;19.50;25.90;;;;;;8327127;28;20552;-55
2021/01/12 10:18:58;;;;;;;4.70;4.20;;;19.50;25.90;;;;;;8328673;28;20034;-56
2021/01/12 10:22:58;;;;;;;4.70;4.20;;;19.50;25.90;;;;;;8353928;28;20106;-55
2021/01/12 10:26:59;;;;;;;6.47;4.90;;;19.50;25.90;;;;;;8355283;28;20121;-55
2021/01/12 10:30:59;;;;;;;4.73;4.23;;;19.50;25.90;;;;;;8328746;28;20426;-55
2021/01/12 10:35:00;;;;;;;6.13;4.07;;;19.50;25.90;;;;;;8349252;28;20033;-55
2021/01/12 10:39:02;;;;;;;5.05;3.75;;;19.50;25.90;;;;;;8363960;28;20556;-55
2021/01/12 10:43:02;;;;;;;5.05;4.25;;;19.50;26.00;;;;;;8348089;28;20192;-56
2021/01/12 10:47:04;;;;;;;5.50;4.67;;;19.50;26.00;;;;;;8327960;28;20029;-56
2021/01/12 10:51:04;;;;;;;5.50;4.18;;;19.50;26.00;;;;;;8356340;28;20037;-56
2021/01/12 10:55:06;;;;;;;5.80;3.93;;;19.50;26.00;;;;;;8347036;28;20048;-56
2021/01/12 10:59:06;;;;;;;5.13;4.28;;;19.50;26.00;;;;;;8332290;28;20105;-56
2021/01/12 11:03:07;;;;;;;5.87;3.40;;;19.60;26.00;;;;;;8326102;28;20049;-56
2021/01/12 11:07:08;;;;;;;5.77;3.97;;;19.60;26.00;;;;;;8327447;28;20038;-55
2021/01/12 11:11:09;;;;;;;5.13;3.75;;;19.60;26.10;;;;;;8326169;28;20036;-56
2021/01/12 11:15:10;;;;;;;4.10;3.67;;;19.60;26.00;;;;;;8329913;28;20037;-56
2021/01/12 11:19:10;;;;;;;4.55;3.60;;;19.60;26.00;;;;;;8327323;28;20039;-56
2021/01/12 11:23:11;;;;;;;5.33;3.97;;;19.60;26.10;;;;;;8326908;28;20041;-56
2021/01/12 11:27:13;;;;;;;4.27;3.50;;;19.60;26.00;;;;;;8331402;28;20032;-56
2021/01/12 11:31:17;;;;;;;5.38;3.58;;;19.60;26.10;;;;;;8364065;28;20029;-55
2021/01/12 11:35:18;;;;;;;4.57;3.53;;;19.60;26.10;;;;;;8360784;28;20490;-56
2021/01/12 11:39:20;;;;;;;3.77;3.20;;;19.60;26.10;;;;;;8350749;28;20048;-55
2021/01/12 11:43:20;;;;;;;4.38;3.58;;;19.60;26.10;;;;;;8326366;28;20041;-55
2021/01/12 11:47:21;;;;;;;4.83;3.63;;;19.60;26.10;;;;;;8326203;28;20030;-55
2021/01/12 11:51:22;;;;;;;4.23;3.33;;;19.60;26.10;;;;;;8328760;28;20061;-55
2021/01/12 11:55:22;;;;;;;4.37;3.33;;;19.60;26.10;;;;;;8325379;28;20033;-55
2021/01/12 11:59:26;;;;;;;4.50;3.93;;;19.60;26.10;;;;;;8325523;28;20433;-57
2021/01/12 12:03:27;;;;;;;6.45;3.42;;;19.60;26.10;;;;;;8323773;28;20037;-56
2021/01/12 12:07:27;;;;;;;4.30;3.90;;;19.60;26.10;;;;;;8329760;28;20398;-55
2021/01/12 12:11:32;;;;;;;4.37;3.60;;;19.60;26.10;;;;;;8324017;28;20121;-55
2021/01/12 12:15:33;;;;;;;9.73;3.22;;;19.70;26.20;;;;;;8325281;28;20044;-55
2021/01/12 12:19:34;;;;;;;3.83;3.30;;;19.70;26.20;;;;;;8325196;28;20486;-55
2021/01/12 12:23:35;;;;;;;4.10;3.00;;;19.70;26.20;;;;;;8348322;28;20048;-53
2021/01/12 12:27:35;;;;;;;4.20;2.97;;;19.60;26.20;;;;;;8362316;28;20390;-54
2021/01/12 12:31:36;;;;;;;3.40;3.03;;;19.70;26.20;;;;;;8357578;28;20033;-55
2021/01/12 12:35:36;;;;;;;4.07;3.10;;;19.70;26.20;;;;;;8356112;28;20067;-55
2021/01/12 12:39:37;;;;;;;3.97;2.97;;;19.70;26.20;;;;;;8347769;28;20034;-55
2021/01/12 12:43:42;;;;;;;3.28;2.70;;;19.70;26.20;;;;;;8347089;28;20493;-55
2021/01/12 12:47:43;;;;;;;5.13;3.45;;;19.70;26.20;;;;;;8328534;28;20033;-57
2021/01/12 12:51:47;;;;;;;4.00;3.27;;;19.70;26.20;;;;;;8324476;28;20029;-57
2021/01/12 12:55:48;;;;;;;3.67;2.88;;;19.70;26.20;;;;;;8324327;28;20029;-56
2021/01/12 12:59:48;;;;;;;5.83;2.70;;;19.70;26.20;;;;;;8323738;28;20107;-57
2021/01/12 13:03:49;;;;;;;2.83;2.57;;;19.70;26.20;;;;;;8296186;28;20057;-56
2021/01/12 13:07:50;;;;;;;3.43;3.00;;;19.70;26.20;;;;;;8315331;28;20034;-57
2021/01/12 13:11:55;;;;;;;3.17;2.80;;;19.70;26.20;;;;;;8325420;28;20043;-57
2021/01/12 13:15:56;;;;;;;3.08;2.67;;;19.70;26.30;;;;;;8344947;28;20159;-56
2021/01/12 13:20:03;;;;;;;3.43;2.90;;;19.70;26.20;;;;;;8328465;28;20113;-56
2021/01/12 13:24:04;;;;;;;2.88;2.35;;;19.70;26.20;;;;;;8327037;28;20049;-57
2021/01/12 13:28:05;;;;;;;4.07;2.60;;;19.80;26.30;;;;;;8356738;28;20037;-56
2021/01/12 13:32:10;;;;;;;5.50;3.03;;;19.70;26.20;;;;;;8356758;28;20033;-57
2021/01/12 13:36:11;;;;;;;3.67;2.85;;;19.70;26.20;;;;;;8355735;28;20040;-56
2021/01/12 13:40:13;;;;;;;3.17;2.73;;;19.70;26.30;;;;;;8333197;28;20120;-57
2021/01/12 13:44:14;;;;;;;4.30;2.25;;;19.70;26.30;;;;;;8352799;28;20113;-57
2021/01/12 13:48:14;;;;;;;2.50;2.20;;;19.70;26.30;;;;;;8361109;28;20037;-58
2021/01/12 13:52:19;;;;;;;3.03;2.30;;;19.70;26.30;;;;;;8362641;28;20075;-56
2021/01/12 13:56:23;;;;;;;3.20;2.53;;;19.70;26.30;;;;;;8367427;28;20255;-56
2021/01/12 14:00:24;;;;;;;3.13;2.42;;;19.80;26.30;;;;;;8328231;28;20042;-57
2021/01/12 14:04:25;;;;;;;3.25;2.22;;;19.70;26.30;;;;;;8329847;28;20057;-57
2021/01/12 14:08:25;;;;;;;3.70;2.63;;;19.70;26.30;;;;;;8329140;28;20033;-56
2021/01/12 14:12:26;;;;;;;2.83;2.37;;;19.80;26.30;;;;;;8364754;28;20520;-56
2021/01/12 14:16:27;;;;;;;3.10;2.80;;;19.80;26.30;;;;;;8361975;28;20047;-56
2021/01/12 14:20:28;;;;;;;2.45;2.25;;;19.80;26.30;;;;;;8360617;28;20458;-56
2021/01/12 14:24:30;;;;;;;3.15;2.20;;;19.80;26.30;;;;;;8362073;28;20044;-56
2021/01/12 14:28:31;;;;;;;2.30;1.92;;;19.80;26.30;;;;;;8344432;28;20025;-56
2021/01/12 14:32:33;;;;;;;3.33;2.30;;;19.80;26.30;;;;;;8356946;28;20068;-56
2021/01/12 14:36:37;;;;;;;2.13;1.92;;;19.80;26.30;;;;;;8361599;28;20033;-56
2021/01/12 14:40:42;;;;;;;2.55;2.10;;;19.80;26.30;;;;;;8343401;28;20033;-56
2021/01/12 14:44:42;;;;;;;2.33;2.00;;;19.80;26.30;;;;;;8328211;28;20072;-56
2021/01/12 14:48:43;;;;;;;3.27;2.00;;;19.80;26.30;;;;;;8354982;28;20033;-57
2021/01/12 14:52:50;;;;;;;2.30;2.07;;;19.80;26.30;;;;;;8346683;28;20482;-56
2021/01/12 14:56:50;;;;;;;2.67;2.20;;;19.80;26.40;;;;;;8331058;28;20040;-56
2021/01/12 15:00:51;;;;;;;2.33;2.13;;;19.80;26.30;;;;;;8327130;28;20064;-56
2021/01/12 15:04:51;;;;;;;2.13;1.93;;;19.80;26.30;;;;;;8347397;28;22385;-56
2021/01/12 15:08:52;;;;;;;3.53;2.20;;;19.80;26.30;;;;;;8363054;28;20025;-57
2021/01/12 15:12:52;;;;;;;2.57;2.37;;;19.80;26.30;;;;;;8348407;28;20045;-56
2021/01/12 15:16:53;;;;;;;2.90;2.27;;;19.80;26.40;;;;;;8327279;28;20037;-57
2021/01/12 15:20:54;;;;;;;3.10;1.90;;;19.80;26.40;;;;;;8329157;28;20378;-56
2021/01/12 15:24:54;;;;;;;3.23;1.80;;;19.80;26.40;;;;;;8364164;28;20049;-56
2021/01/12 15:28:55;;;;;;;2.67;2.17;;;19.80;26.40;;;;;;8339686;28;20044;-56
2021/01/12 15:32:55;;;;;;;2.27;2.07;;;19.80;26.40;;;;;;8356751;28;20150;-57
2021/01/12 15:36:56;;;;;;;2.00;1.80;;;19.80;26.40;;;;;;8304302;28;20033;-57
2021/01/12 15:40:56;;;;;;;1.95;1.75;;;19.80;26.50;;;;;;8328915;28;20494;-57
2021/01/12 15:44:57;;;;;;;2.43;2.13;;;19.80;26.80;;;;;;8292449;28;20058;-56
2021/01/12 15:48:57;;;;;;;2.17;1.97;;;19.90;27.20;;;;;;8319738;28;20057;-56
2021/01/12 15:52:59;;;;;;;3.27;2.00;;;19.90;27.50;;;;;;8319960;28;20044;-56
2021/01/12 15:56:59;;;;;;;2.10;1.90;;;19.90;27.60;;;;;;8317179;28;20037;-54
2021/01/12 16:01:01;;;;;;;2.17;1.90;;;20.00;27.80;;;;;;8322031;28;20084;-55
2021/01/12 16:05:01;;;;;;;4.43;1.92;;;20.00;27.80;;;;;;8311639;28;20068;-51
2021/01/12 16:09:02;;;;;;;4.65;1.90;;;20.00;27.80;;;;;;8338486;28;20037;-56
2021/01/12 16:13:04;;;;;;;2.78;2.00;;;20.10;28.40;;;;;;8319407;28;20045;-56
2021/01/12 16:17:04;;;;;;;5.40;2.28;;;20.10;28.20;;;;;;8324066;28;20179;-56
2021/01/12 16:21:05;;;;;;;4.67;1.77;;;20.20;28.10;;;;;;8317549;28;20125;-56
2021/01/12 16:25:08;;;;;;;2.00;1.73;;;20.20;28.00;;;;;;8319145;28;20053;-55
2021/01/12 16:29:09;;;;;;;2.70;2.20;;;20.20;27.90;;;;;;8318610;28;20044;-56
2021/01/12 16:33:21;;;;;;;4.57;2.10;;;20.30;27.80;;;;;;8317150;28;20034;-56
2021/01/12 16:37:23;;;;;;;5.07;2.08;;;20.30;27.80;;;;;;8322846;28;20051;-55
2021/01/12 16:41:26;;;;;;;7.70;2.10;;;20.40;27.70;;;;;;8318092;28;20063;-56
2021/01/12 16:45:27;;;;;;;3.90;2.25;;;20.40;27.70;;;;;;8316662;28;20041;-56
2021/01/12 16:49:27;;;;;;;3.17;2.30;;;20.40;27.60;;;;;;8335078;28;20098;-55
2021/01/12 16:53:28;;;;;;;3.67;1.93;;;20.50;27.90;;;;;;8354022;28;20040;-55
2021/01/12 16:57:30;;;;;;;4.90;2.73;;;20.50;27.80;;;;;;8343090;28;20042;-55
2021/01/12 17:01:37;;;;;;;3.03;2.03;;;20.60;27.80;;;;;;8318591;28;20045;-54
2021/01/12 17:05:37;;;;;;;4.20;2.63;;;20.60;27.90;;;;;;8315165;28;20416;-54
2021/01/12 17:09:39;;;;;;;3.27;1.83;;;20.60;27.70;;;;;;8354095;28;20039;-53
2021/01/12 17:13:39;;;;;;;2.85;2.30;;;20.70;27.70;;;;;;8344358;28;20398;-54
2021/01/12 17:17:45;;;;;;;3.53;2.20;;;20.60;27.60;;;;;;8349599;28;20037;-53
2021/01/12 17:21:49;;;;;;;2.47;1.92;;;20.70;27.60;;;;;;8357129;28;20052;-51
2021/01/12 17:25:55;;;;;;;4.57;2.40;;;20.70;27.60;;;;;;8343516;28;20417;-54
2021/01/12 17:29:57;;;;;;;7.00;1.90;;;20.80;27.70;;;;;;8331547;28;20048;-54
2021/01/12 17:33:58;;;;;;;10.20;2.10;;;20.70;28.70;;;;;;8317097;28;20041;-53
2021/01/12 17:38:00;;;;;;;3.47;2.00;;;20.80;28.60;;;;;;8322033;28;20037;-51
2021/01/12 17:42:01;;;;;;;3.40;1.77;;;20.90;29.00;;;;;;8346885;28;20055;-56
2021/01/12 17:46:02;;;;;;;3.75;2.20;;;20.90;29.10;;;;;;8356802;28;20033;-55
2021/01/12 17:50:06;;;;;;;12.90;2.27;;;21.00;29.20;;;;;;8360408;28;20083;-55
2021/01/12 17:54:11;;;;;;;6.65;2.00;;;21.00;29.30;;;;;;8352540;28;20037;-53
2021/01/12 17:58:13;;;;;;;6.15;1.75;;;21.00;29.30;;;;;;8342052;28;20103;-53
2021/01/12 18:02:17;;;;;;;3.95;2.63;;;21.10;29.20;;;;;;8323586;28;20045;-56
2021/01/12 18:06:21;;;;;;;7.35;1.73;;;21.10;29.20;;;;;;8326042;28;20038;-53
2021/01/12 18:10:24;;;;;;;6.57;2.22;;;21.10;29.40;;;;;;8338045;28;20375;-56
2021/01/12 18:14:25;;;;;;;2.63;1.65;;;21.20;29.20;;;;;;8352107;28;20029;-54
2021/01/12 18:18:25;;;;;;;3.35;2.25;;;21.20;29.20;;;;;;8353073;28;20409;-53
2021/01/12 18:22:32;;;;;;;5.50;1.90;;;21.20;28.90;;;;;;8341572;28;20091;-52
2021/01/12 18:26:42;;;;;;;3.78;2.22;;;21.20;28.80;;;;;;8355545;28;20049;-53
2021/01/12 18:30:43;;;;;;;4.65;2.25;;;21.20;28.70;;;;;;8325218;28;20405;-49
2021/01/12 18:34:45;;;;;;;2.83;1.80;;;21.30;28.60;;;;;;8326264;28;20364;-53
2021/01/12 18:38:48;;;;;;;3.63;1.75;;;21.30;28.60;;;;;;8320514;28;20399;-50
2021/01/12 18:42:49;;;;;;;3.60;2.45;;;21.30;28.60;;;;;;8299724;28;20033;-50
2021/01/12 18:46:52;;;;;;;6.28;2.30;;;21.30;28.60;;;;;;8326840;28;20135;-51
2021/01/12 18:50:54;;;;;;;3.92;1.98;;;21.30;28.50;;;;;;8326105;28;20033;-49
2021/01/12 18:55:03;;;;;;;4.63;2.00;;;21.30;28.40;;;;;;8328325;28;20395;-50
2021/01/12 18:59:03;;;;;;;3.95;1.98;;;21.30;28.30;;;;;;8327803;28;20037;-51
2021/01/12 19:03:05;;;;;;;2.33;1.93;;;21.30;28.20;;;;;;8335818;28;20048;-55
2021/01/12 19:07:07;;;;;;;5.63;2.45;;;21.20;28.10;;;;;;8360581;28;20075;-55
2021/01/12 19:11:12;;;;;;;4.30;1.75;;;21.30;28.10;;;;;;8338760;28;20026;-56
2021/01/12 19:15:13;;;;;;;3.30;1.90;;;21.20;28.00;;;;;;8325624;28;20048;-55
2021/01/12 19:19:15;;;;;;;5.78;2.10;;;21.20;28.00;;;;;;8331718;28;20387;-55
2021/01/12 19:23:15;;;;;;;2.13;1.60;;;21.20;27.90;;;;;;8327103;28;20045;-55
2021/01/12 19:27:16;;;;;;;1.67;1.57;;;21.20;27.90;;;;;;8350223;28;20041;-56
2021/01/12 19:31:18;;;;;;;2.50;1.55;;;21.20;27.90;;;;;;8325766;28;20034;-55
2021/01/12 19:35:21;;;;;;;1.75;1.63;;;21.10;27.80;;;;;;8326672;28;20056;-54
2021/01/12 19:39:23;;;;;;;3.42;1.80;;;21.20;27.80;;;;;;8336978;28;20033;-54
2021/01/12 19:43:25;;;;;;;2.55;2.00;;;21.20;27.80;;;;;;8359465;28;20049;-55
2021/01/12 19:47:26;;;;;;;2.30;1.70;;;21.20;27.70;;;;;;8359119;28;20064;-55
2021/01/12 19:51:27;;;;;;;2.80;1.95;;;21.20;27.70;;;;;;8325156;28;20030;-56
2021/01/12 19:55:29;;;;;;;3.60;1.58;;;21.20;27.70;;;;;;8330483;28;20071;-54
2021/01/12 19:59:30;;;;;;;3.42;1.70;;;21.20;27.70;;;;;;8324396;28;20041;-56
2021/01/12 20:03:36;;;;;;;3.15;1.55;;;21.20;27.70;;;;;;8326070;28;20379;-55
2021/01/12 20:07:41;;;;;;;4.22;1.85;;;21.20;27.60;;;;;;8325745;28;20483;-55
2021/01/12 20:11:43;;;;;;;2.17;1.50;;;21.20;27.60;;;;;;8323914;28;20045;-55
2021/01/12 20:15:45;;;;;;;2.80;1.63;;;21.20;27.60;;;;;;8329679;28;20064;-56
2021/01/12 20:19:56;;;;;;;1.65;1.55;;;21.20;27.60;;;;;;8344445;28;20037;-55
2021/01/12 20:24:04;;;;;;;4.35;1.75;;;21.20;27.60;;;;;;8352434;28;20502;-55
2021/01/12 20:28:06;;;;;;;2.15;1.38;;;21.20;27.60;;;;;;8356837;28;20053;-56
2021/01/12 20:32:08;;;;;;;2.10;1.58;;;21.20;27.60;;;;;;8329495;28;20038;-56
2021/01/12 20:36:09;;;;;;;;;;;21.30;27.60;;;;;;8354042;28;20030;-56
2021/01/12 20:40:11;;;;;;;1.50;1.38;;;21.30;27.60;;;;;;8357769;28;19912;-55
2021/01/12 20:44:12;;;;;;;;;;;21.30;27.50;;;;;;8335436;28;20049;-57
2021/01/12 20:48:13;;;;;;;;;;;21.20;27.50;;;;;;8329669;28;19916;-56
2021/01/12 20:52:15;;;;;;;2.23;1.53;;;21.30;27.50;;;;;;8362000;28;20438;-55
2021/01/12 20:56:17;;;;;;;2.55;1.85;;;21.20;27.50;;;;;;8357428;28;20033;-56
2021/01/12 21:00:18;;;;;;;1.92;1.52;;;21.30;27.50;;;;;;8324200;28;20443;-55